Terminal Aerodrome Forecast
Issued by NWS

Home | Current Version | Previous Version | Text Only | Print | Product List | Glossary Off
Versions: 1 2 3 4 5 6 7 8 9 10 11 12 13 14 15 16 17 18 19 20 21

000
FTUS43 KTOP 251100 AAD
TAFMHK
TAF AMD
KMHK 251100Z 2511/2606 00000KT 2SM BR OVC003
      TEMPO 2511/2514 1/4SM FG OVC002
     FM251400 17005KT P6SM SCT012 BKN120
     FM251800 01015G24KT P6SM -RA BKN035 BKN100=

USA.gov is the U.S. government's official web portal to all federal, state and local government web resources and services.